createdAt,value
2018-09-10T00:01:13.982Z,101830.24
2018-09-10T00:03:42.557Z,101825.26
2018-09-10T00:06:11.139Z,101827.92
2018-09-10T00:08:39.730Z,101827.80
2018-09-10T00:11:08.325Z,101830.08
2018-09-10T00:13:36.904Z,101827.30
2018-09-10T00:16:05.489Z,101830.20
2018-09-10T00:18:34.065Z,101827.50
2018-09-10T00:21:02.651Z,101822.59
2018-09-10T00:23:31.223Z,101831.45
2018-09-10T00:26:00.285Z,101828.67
2018-09-10T00:28:28.890Z,101829.78
2018-09-10T00:30:57.516Z,101829.41
2018-09-10T00:33:26.095Z,101830.78
2018-09-10T00:35:54.705Z,101828.57
2018-09-10T00:38:23.278Z,101832.32
2018-09-10T00:40:51.883Z,101823.63
2018-09-10T00:43:20.466Z,101820.09
2018-09-10T00:45:49.055Z,101820.14
2018-09-10T00:48:17.656Z,101817.25
2018-09-10T00:50:46.242Z,101818.45
2018-09-10T00:53:14.829Z,101819.30
2018-09-10T00:55:43.439Z,101814.14
2018-09-10T00:58:11.997Z,101816.84
2018-09-10T01:00:40.572Z,101819.36
2018-09-10T01:03:09.170Z,101825.31
2018-09-10T01:05:37.750Z,101825.63
2018-09-10T01:08:06.381Z,101827.73
2018-09-10T01:10:34.965Z,101828.88
2018-09-10T01:13:03.577Z,101828.59
2018-09-10T01:15:32.148Z,101828.07
2018-09-10T01:18:00.948Z,101827.34
2018-09-10T01:20:29.520Z,101822.70
2018-09-10T01:22:58.120Z,101820.94
2018-09-10T01:25:26.707Z,101819.73
2018-09-10T01:27:55.326Z,101819.58
2018-09-10T01:30:23.883Z,101821.98
2018-09-10T01:32:52.535Z,101818.61
2018-09-10T01:35:21.112Z,101819.50
2018-09-10T01:37:49.697Z,101821.23
2018-09-10T01:40:18.283Z,101818.02
2018-09-10T01:42:46.860Z,101813.75
2018-09-10T01:45:15.427Z,101807.23
2018-09-10T01:47:44.009Z,101809.61
2018-09-10T01:50:12.569Z,101808.92
2018-09-10T01:52:41.175Z,101808.20
2018-09-10T01:55:09.737Z,101812.78
2018-09-10T01:57:38.321Z,101813.61
2018-09-10T02:00:06.961Z,101810.48
2018-09-10T02:02:35.551Z,101814.89
2018-09-10T02:05:04.180Z,101809.05
2018-09-10T02:07:32.783Z,101804.06
2018-09-10T02:10:01.357Z,101807.20
2018-09-10T02:12:29.932Z,101803.63
2018-09-10T02:14:58.568Z,101804.16
2018-09-10T02:17:27.196Z,101798.84
2018-09-10T02:19:55.772Z,101798.84
2018-09-10T02:22:24.326Z,101787.89
2018-09-10T02:24:53.254Z,101791.62
2018-09-10T02:27:21.869Z,101788.53
2018-09-10T02:29:50.458Z,101792.16
2018-09-10T02:32:19.021Z,101791.48
2018-09-10T02:34:47.619Z,101788.78
2018-09-10T02:37:16.215Z,101785.25
2018-09-10T02:39:44.830Z,101777.56
2018-09-10T02:42:13.423Z,101779.63
2018-09-10T02:44:42.008Z,101776.05
2018-09-10T02:47:10.574Z,101776.56
2018-09-10T02:49:39.161Z,101770.89
2018-09-10T02:52:07.744Z,101766.42
2018-09-10T02:54:36.342Z,101765.33
2018-09-10T02:57:04.921Z,101770.06
2018-09-10T02:59:33.520Z,101771.38
2018-09-10T03:02:02.094Z,101774.59
2018-09-10T03:04:30.688Z,101766.90
2018-09-10T03:06:59.305Z,101767.95
2018-09-10T03:09:27.906Z,101767.48
2018-09-10T03:11:56.477Z,101767.00
2018-09-10T03:14:25.054Z,101759.48
2018-09-10T03:16:53.621Z,101766.53
2018-09-10T03:19:22.205Z,101767.74
2018-09-10T03:21:51.033Z,101769.11
2018-09-10T03:24:19.689Z,101759.73
2018-09-10T03:26:48.258Z,101765.25
2018-09-10T03:29:16.901Z,101759.63
2018-09-10T03:31:45.467Z,101761.52
2018-09-10T03:34:14.049Z,101763.67
2018-09-10T03:36:42.622Z,101765.66
2018-09-10T03:39:11.757Z,101762.44
2018-09-10T03:41:40.429Z,101766.91
2018-09-10T03:44:09.060Z,101765.06
2018-09-10T03:46:37.761Z,101761.33
2018-09-10T03:49:06.391Z,101763.58
2018-09-10T03:51:34.972Z,101764.98
2018-09-10T03:54:03.587Z,101762.77
2018-09-10T03:56:32.314Z,101768.05
2018-09-10T03:59:00.882Z,101769.25
2018-09-10T04:01:29.471Z,101763.91
2018-09-10T04:03:58.048Z,101758.95
2018-09-10T04:06:26.655Z,101751.80
2018-09-10T04:08:55.248Z,101749.42
2018-09-10T04:11:23.834Z,101747.70
2018-09-10T04:13:52.397Z,101753.13
2018-09-10T04:16:20.985Z,101759.88
2018-09-10T04:18:49.886Z,101757.73
2018-09-10T04:21:18.543Z,101756.05
2018-09-10T04:23:47.109Z,101749.02
2018-09-10T04:26:15.692Z,101750.48
2018-09-10T04:28:44.302Z,101744.78
2018-09-10T04:31:13.129Z,101744.58
2018-09-10T04:33:41.693Z,101747.06
2018-09-10T04:36:10.292Z,101743.40
2018-09-10T04:38:38.937Z,101736.44
2018-09-10T04:41:07.530Z,101737.41
2018-09-10T04:43:36.082Z,101738.40
2018-09-10T04:46:04.657Z,101741.08
2018-09-10T04:48:33.202Z,101744.08
2018-09-10T04:51:01.786Z,101735.20
2018-09-10T04:53:30.349Z,101734.20
2018-09-10T04:55:58.949Z,101731.13
2018-09-10T04:58:27.529Z,101737.34
2018-09-10T05:00:56.180Z,101738.66
2018-09-10T05:03:24.790Z,101738.27
2018-09-10T05:05:53.371Z,101739.56
2018-09-10T05:08:21.949Z,101741.39
2018-09-10T05:10:50.529Z,101746.98
2018-09-10T05:13:19.108Z,101744.91
2018-09-10T05:15:47.669Z,101741.95
2018-09-10T05:18:16.252Z,101741.05
2018-09-10T05:20:44.823Z,101741.32
2018-09-10T05:23:13.400Z,101737.59
2018-09-10T05:25:42.026Z,101738.49
2018-09-10T05:28:10.691Z,101736.66
2018-09-10T05:30:39.273Z,101741.98
2018-09-10T05:33:07.881Z,101742.89
2018-09-10T05:35:36.457Z,101743.39
2018-09-10T05:38:05.051Z,101744.08
2018-09-10T05:40:33.601Z,101742.70
2018-09-10T05:43:02.196Z,101746.38
2018-09-10T05:45:30.834Z,101748.95
2018-09-10T05:47:59.441Z,101745.19
2018-09-10T05:50:28.007Z,101748.41
2018-09-10T05:52:56.603Z,101750.80
2018-09-10T05:55:25.299Z,101749.80
2018-09-10T05:57:53.806Z,101746.45
2018-09-10T06:00:22.368Z,101740.88
2018-09-10T06:02:50.954Z,101736.69
2018-09-10T06:05:19.534Z,101722.30
2018-09-10T06:07:48.134Z,101714.91
2018-09-10T06:10:16.709Z,101711.52
2018-09-10T06:12:45.307Z,101712.55
2018-09-10T06:15:13.884Z,101709.19
2018-09-10T06:17:42.478Z,101719.33
2018-09-10T06:20:11.040Z,101732.03
2018-09-10T06:22:39.632Z,101726.28
2018-09-10T06:25:08.223Z,101726.80
2018-09-10T06:27:36.833Z,101722.70
2018-09-10T06:30:05.731Z,101717.39
2018-09-10T06:32:34.313Z,101716.73
2018-09-10T06:35:02.913Z,101713.64
2018-09-10T06:37:31.502Z,101714.14
2018-09-10T06:40:00.076Z,101710.23
2018-09-10T06:42:28.679Z,101703.70
2018-09-10T06:44:57.243Z,101697.91
2018-09-10T06:47:25.838Z,101697.83
2018-09-10T06:49:54.421Z,101692.36
2018-09-10T06:52:22.996Z,101697.34
2018-09-10T06:54:51.594Z,101688.66
2018-09-10T06:57:20.239Z,101686.16
2018-09-10T06:59:48.826Z,101685.55
2018-09-10T07:02:17.395Z,101689.12
2018-09-10T07:04:45.983Z,101695.79
2018-09-10T07:07:14.549Z,101696.48
2018-09-10T07:09:43.155Z,101698.46
2018-09-10T07:12:11.717Z,101704.70
2018-09-10T07:14:40.331Z,101724.27
2018-09-10T07:17:08.917Z,101710.78
2018-09-10T07:19:37.523Z,101718.63
2018-09-10T07:22:06.098Z,101711.83
2018-09-10T07:24:34.715Z,101718.82
2018-09-10T07:27:03.317Z,101720.05
2018-09-10T07:29:31.934Z,101713.84
2018-09-10T07:32:00.493Z,101717.08
2018-09-10T07:34:29.101Z,101714.02
2018-09-10T07:36:57.684Z,101719.09
2018-09-10T07:39:26.323Z,101726.61
2018-09-10T07:41:54.892Z,101718.70
2018-09-10T07:44:23.486Z,101718.63
2018-09-10T07:46:52.113Z,101721.25
2018-09-10T07:49:20.839Z,101713.20
2018-09-10T07:51:49.460Z,101710.27
2018-09-10T07:54:18.075Z,101712.14
2018-09-10T07:56:46.653Z,101709.38
2018-09-10T07:59:15.265Z,101707.61
2018-09-10T08:01:43.862Z,101704.88
2018-09-10T08:04:12.464Z,101710.64
2018-09-10T08:06:41.049Z,101706.31
2018-09-10T08:09:10.313Z,101711.14
2018-09-10T08:11:38.925Z,101713.95
2018-09-10T08:14:07.707Z,101710.64
2018-09-10T08:16:36.317Z,101726.85
2018-09-10T08:19:04.937Z,101722.77
2018-09-10T08:21:33.554Z,101727.11
2018-09-10T08:24:02.189Z,101735.23
2018-09-10T08:26:30.760Z,101731.38
2018-09-10T08:28:59.372Z,101739.77
2018-09-10T08:31:28.130Z,101742.89
2018-09-10T08:33:57.018Z,101733.93
2018-09-10T08:36:25.639Z,101729.52
2018-09-10T08:38:54.213Z,101727.95
2018-09-10T08:41:22.822Z,101725.17
2018-09-10T08:43:51.391Z,101728.56
2018-09-10T08:46:20.033Z,101738.81
2018-09-10T08:48:48.598Z,101734.47
2018-09-10T08:51:17.210Z,101728.57
2018-09-10T08:53:45.782Z,101731.00
2018-09-10T08:56:14.661Z,101730.59
2018-09-10T08:58:43.034Z,101734.02
2018-09-10T09:01:11.628Z,101734.61
2018-09-10T09:03:40.209Z,101738.84
2018-09-10T09:06:08.880Z,101740.70
2018-09-10T09:08:37.440Z,101736.75
2018-09-10T09:11:06.035Z,101739.83
2018-09-10T09:13:34.612Z,101746.91
2018-09-10T09:16:03.225Z,101752.48
2018-09-10T09:18:31.796Z,101756.50
2018-09-10T09:21:00.405Z,101757.29
2018-09-10T09:23:29.142Z,101754.74
2018-09-10T09:25:57.743Z,101752.28
2018-09-10T09:28:26.332Z,101748.33
2018-09-10T09:30:54.915Z,101749.28
2018-09-10T09:33:23.493Z,101756.38
2018-09-10T09:35:57.330Z,101758.22
2018-09-10T09:39:30.899Z,101754.61
2018-09-10T09:42:04.818Z,101753.23
2018-09-10T09:44:38.716Z,101749.55
2018-09-10T09:47:07.308Z,101747.73
2018-09-10T09:49:35.884Z,101750.48
2018-09-10T09:52:04.460Z,101751.13
2018-09-10T09:54:33.036Z,101757.33
2018-09-10T09:57:01.633Z,101751.10
2018-09-10T09:59:30.247Z,101749.89
2018-09-10T10:02:04.199Z,101749.46
2018-09-10T10:04:32.805Z,101751.50
2018-09-10T10:07:01.401Z,101757.73
2018-09-10T10:09:29.964Z,101751.38
2018-09-10T10:11:58.559Z,101747.11
2018-09-10T10:14:27.125Z,101746.88
2018-09-10T10:16:55.727Z,101739.75
2018-09-10T10:19:24.449Z,101743.34
2018-09-10T10:21:53.094Z,101748.87
2018-09-10T10:24:21.639Z,101741.90
2018-09-10T10:26:50.293Z,101735.75
2018-09-10T10:29:18.902Z,101737.78
2018-09-10T10:31:47.513Z,101739.63
2018-09-10T10:34:16.106Z,101733.87
2018-09-10T10:36:44.721Z,101731.52
2018-09-10T10:39:13.351Z,101729.34
2018-09-10T10:41:41.920Z,101723.28
2018-09-10T10:44:10.553Z,101714.95
2018-09-10T10:46:39.120Z,101715.94
2018-09-10T10:49:07.754Z,101721.75
2018-09-10T10:51:36.356Z,101723.52
2018-09-10T10:54:04.970Z,101714.22
2018-09-10T10:56:33.540Z,101712.39
2018-09-10T10:59:02.168Z,101714.59
2018-09-10T11:01:30.742Z,101709.55
2018-09-10T11:03:59.323Z,101704.08
2018-09-10T11:06:27.888Z,101695.80
2018-09-10T11:08:56.473Z,101709.75
2018-09-10T11:11:25.057Z,101701.22
2018-09-10T11:13:53.649Z,101708.36
2018-09-10T11:16:22.214Z,101712.95
2018-09-10T11:18:50.785Z,101712.47
2018-09-10T11:21:19.343Z,101718.63
2018-09-10T11:23:47.943Z,101715.17
2018-09-10T11:26:16.517Z,101707.46
2018-09-10T11:28:45.132Z,101707.61
2018-09-10T11:31:13.717Z,101708.55
2018-09-10T11:33:42.302Z,101701.45
2018-09-10T11:36:10.881Z,101693.92
2018-09-10T11:38:39.482Z,101701.04
2018-09-10T11:41:08.085Z,101706.38
2018-09-10T11:43:36.735Z,101700.48
2018-09-10T11:46:05.293Z,101707.33
2018-09-10T11:48:33.874Z,101702.22
2018-09-10T11:51:02.447Z,101712.50
2018-09-10T11:53:31.043Z,101708.75
2018-09-10T11:55:59.618Z,101695.91
2018-09-10T11:58:28.214Z,101690.23
2018-09-10T12:00:56.780Z,101690.33
2018-09-10T12:03:25.362Z,101683.70
2018-09-10T12:05:53.928Z,101682.63
2018-09-10T12:08:22.557Z,101682.91
2018-09-10T12:10:51.133Z,101689.05
2018-09-10T12:13:19.737Z,101684.06
2018-09-10T12:15:48.312Z,101688.27
2018-09-10T12:18:16.898Z,101687.72
2018-09-10T12:20:45.474Z,101696.06
2018-09-10T12:23:14.060Z,101690.22
2018-09-10T12:25:42.661Z,101705.01
2018-09-10T12:28:11.254Z,101703.05
2018-09-10T12:30:39.848Z,101704.08
2018-09-10T12:33:08.429Z,101712.73
2018-09-10T12:35:37.100Z,101716.70
2018-09-10T12:38:05.930Z,101720.45
2018-09-10T12:40:34.546Z,101729.34
2018-09-10T12:43:03.990Z,101731.73
2018-09-10T12:45:32.636Z,101726.95
2018-09-10T12:48:01.332Z,101733.43
2018-09-10T12:50:29.920Z,101729.41
2018-09-10T12:52:58.498Z,101738.44
2018-09-10T12:55:27.092Z,101743.27
2018-09-10T12:57:55.661Z,101742.90
2018-09-10T13:00:24.310Z,101748.08
2018-09-10T13:02:52.927Z,101742.07
2018-09-10T13:05:21.594Z,101750.84
2018-09-10T13:07:50.337Z,101744.58
2018-09-10T13:10:18.948Z,101735.80
2018-09-10T13:12:47.543Z,101743.15
2018-09-10T13:15:16.155Z,101737.98
2018-09-10T13:17:44.743Z,101733.92
2018-09-10T13:20:13.546Z,101734.77
2018-09-10T13:22:42.236Z,101727.09
2018-09-10T13:25:10.830Z,101729.14
2018-09-10T13:27:39.400Z,101728.36
2018-09-10T13:30:08.028Z,101733.50
2018-09-10T13:32:36.642Z,101731.75
2018-09-10T13:35:05.291Z,101723.05
2018-09-10T13:37:33.854Z,101728.02
2018-09-10T13:40:02.449Z,101730.52
2018-09-10T13:42:31.083Z,101724.22
2018-09-10T13:44:59.744Z,101722.94
2018-09-10T13:47:28.297Z,101721.26
2018-09-10T13:49:56.919Z,101714.61
2018-09-10T13:52:25.477Z,101718.30
2018-09-10T13:54:54.097Z,101719.94
2018-09-10T13:57:22.651Z,101719.59
2018-09-10T13:59:51.233Z,101721.52
2018-09-10T14:02:19.799Z,101723.64
2018-09-10T14:04:48.377Z,101719.98
2018-09-10T14:07:16.942Z,101720.98
2018-09-10T14:09:45.553Z,101721.57
2018-09-10T14:12:14.105Z,101729.19
2018-09-10T14:14:42.691Z,101730.94
2018-09-10T14:17:11.530Z,101722.83
2018-09-10T14:19:40.108Z,101736.59
2018-09-10T14:22:08.704Z,101748.92
2018-09-10T14:24:37.274Z,101752.89
2018-09-10T14:27:05.987Z,101744.98
2018-09-10T14:29:34.926Z,101749.34
2018-09-10T14:32:03.514Z,101759.52
2018-09-10T14:34:32.096Z,101753.69
2018-09-10T14:37:00.763Z,101749.81
2018-09-10T14:39:29.333Z,101751.55
2018-09-10T14:41:57.905Z,101749.56
2018-09-10T14:44:26.477Z,101750.67
2018-09-10T14:46:55.053Z,101755.66
2018-09-10T14:49:23.619Z,101745.55
2018-09-10T14:51:52.201Z,101752.77
2018-09-10T14:54:20.777Z,101753.88
2018-09-10T14:56:49.365Z,101752.72
2018-09-10T14:59:17.989Z,101753.48
2018-09-10T15:01:46.548Z,101761.77
2018-09-10T15:04:15.140Z,101758.02
2018-09-10T15:06:43.739Z,101752.97
2018-09-10T15:09:12.286Z,101760.48
2018-09-10T15:11:40.873Z,101761.88
2018-09-10T15:14:09.428Z,101763.43
2018-09-10T15:16:38.005Z,101775.08
2018-09-10T15:19:06.690Z,101774.16
2018-09-10T15:21:35.226Z,101787.05
2018-09-10T15:24:03.786Z,101788.39
2018-09-10T15:26:32.371Z,101778.78
2018-09-10T15:29:00.970Z,101791.98
2018-09-10T15:31:29.577Z,101796.59
2018-09-10T15:33:58.159Z,101798.71
2018-09-10T15:36:26.740Z,101792.81
2018-09-10T15:38:55.314Z,101791.38
2018-09-10T15:41:23.947Z,101791.59
2018-09-10T15:43:52.506Z,101784.36
2018-09-10T15:46:21.093Z,101779.59
2018-09-10T15:48:49.708Z,101785.07
2018-09-10T15:51:18.327Z,101796.07
2018-09-10T15:53:46.963Z,101792.05
2018-09-10T15:56:15.548Z,101788.20
2018-09-10T15:58:44.174Z,101791.90
2018-09-10T16:01:12.761Z,101785.95
2018-09-10T16:03:41.413Z,101789.75
2018-09-10T16:06:09.981Z,101781.42
2018-09-10T16:08:38.601Z,101787.26
2018-09-10T16:11:07.287Z,101782.48
2018-09-10T16:13:35.913Z,101778.58
2018-09-10T16:16:04.485Z,101794.85
2018-09-10T16:18:33.088Z,101791.99
2018-09-10T16:21:01.669Z,101784.09
2018-09-10T16:25:57.802Z,101791.91
2018-09-10T16:28:26.422Z,101796.83
2018-09-10T16:30:55.008Z,101806.69
2018-09-10T16:33:23.613Z,101801.59
2018-09-10T16:35:52.200Z,101802.08
2018-09-10T16:38:20.805Z,101800.92
2018-09-10T16:40:49.376Z,101807.02
2018-09-10T16:43:17.976Z,101811.19
2018-09-10T16:45:46.570Z,101813.06
2018-09-10T16:48:15.204Z,101809.45
2018-09-10T16:50:43.852Z,101809.06
2018-09-10T16:53:12.464Z,101814.48
2018-09-10T16:55:41.041Z,101811.97
2018-09-10T16:58:09.647Z,101814.33
2018-09-10T17:00:38.230Z,101828.33
2018-09-10T17:03:07.341Z,101832.39
2018-09-10T17:05:35.931Z,101828.42
2018-09-10T17:08:04.574Z,101831.06
2018-09-10T17:10:33.192Z,101837.34
2018-09-10T17:13:01.787Z,101840.30
2018-09-10T17:15:30.387Z,101829.95
2018-09-10T17:17:58.988Z,101828.64
2018-09-10T17:20:27.597Z,101829.89
2018-09-10T17:22:56.287Z,101829.05
2018-09-10T17:25:24.906Z,101832.55
2018-09-10T17:27:53.560Z,101819.97
2018-09-10T17:30:22.264Z,101821.83
2018-09-10T17:32:50.870Z,101831.39
2018-09-10T17:35:19.468Z,101825.38
2018-09-10T17:37:48.047Z,101820.27
2018-09-10T17:40:16.629Z,101818.14
2018-09-10T17:42:45.209Z,101812.34
2018-09-10T17:45:13.797Z,101809.23
2018-09-10T17:47:42.373Z,101821.59
2018-09-10T17:50:10.963Z,101823.45
2018-09-10T17:52:39.535Z,101828.03
2018-09-10T17:55:08.137Z,101835.45
2018-09-10T17:57:36.714Z,101830.08
2018-09-10T18:00:05.424Z,101828.17
2018-09-10T18:02:33.997Z,101818.48
2018-09-10T18:05:02.584Z,101817.17
2018-09-10T18:07:31.397Z,101823.11
2018-09-10T18:09:59.987Z,101827.63
2018-09-10T18:12:28.563Z,101836.23
2018-09-10T18:14:57.202Z,101839.06
2018-09-10T18:17:25.766Z,101841.34
2018-09-10T18:19:54.360Z,101851.77
2018-09-10T18:22:22.924Z,101860.45
2018-09-10T18:24:51.514Z,101859.58
2018-09-10T18:27:20.131Z,101869.65
2018-09-10T18:29:48.720Z,101874.30
2018-09-10T18:32:17.276Z,101872.02
2018-09-10T18:34:45.862Z,101879.69
2018-09-10T18:37:14.434Z,101877.64
2018-09-10T18:39:43.028Z,101881.78
2018-09-10T18:42:11.594Z,101881.58
2018-09-10T18:44:40.234Z,101877.22
2018-09-10T18:47:08.790Z,101884.22
2018-09-10T18:49:37.397Z,101883.38
2018-09-10T18:52:06.002Z,101871.78
2018-09-10T18:54:34.581Z,101874.55
2018-09-10T18:57:03.172Z,101864.23
2018-09-10T18:59:31.753Z,101867.94
2018-09-10T19:02:00.402Z,101871.33
2018-09-10T19:04:28.970Z,101870.10
2018-09-10T19:06:57.563Z,101866.08
2018-09-10T19:09:26.169Z,101868.05
2018-09-10T19:11:54.797Z,101866.48
2018-09-10T19:14:23.380Z,101868.17
2018-09-10T19:16:52.102Z,101863.53
2018-09-10T19:19:20.682Z,101874.44
2018-09-10T19:21:49.293Z,101872.27
2018-09-10T19:24:17.887Z,101866.78
2018-09-10T19:26:46.507Z,101859.92
2018-09-10T19:29:15.293Z,101855.92
2018-09-10T19:31:43.987Z,101857.24
2018-09-10T19:34:12.576Z,101859.06
2018-09-10T19:36:41.189Z,101873.02
2018-09-10T19:39:11.351Z,101862.62
2018-09-10T19:41:40.160Z,101865.31
2018-09-10T19:44:08.996Z,101859.16
2018-09-10T19:46:37.610Z,101860.83
2018-09-10T19:49:06.201Z,101858.95
2018-09-10T19:51:34.810Z,101863.09
2018-09-10T19:54:03.393Z,101861.81
2018-09-10T19:56:32.005Z,101863.77
2018-09-10T19:59:00.594Z,101867.98
2018-09-10T20:01:29.203Z,101864.61
2018-09-10T20:03:57.795Z,101865.39
2018-09-10T20:06:26.399Z,101871.70
2018-09-10T20:08:54.979Z,101870.89
2018-09-10T20:11:23.602Z,101878.02
2018-09-10T20:13:52.222Z,101890.78
2018-09-10T20:16:20.901Z,101892.19
2018-09-10T20:18:49.563Z,101891.36
2018-09-10T20:21:18.153Z,101889.45
2018-09-10T20:23:48.824Z,101889.92
2018-09-10T20:26:17.420Z,101875.39
2018-09-10T20:28:46.014Z,101874.97
2018-09-10T20:31:14.668Z,101869.50
2018-09-10T20:33:48.548Z,101869.81
2018-09-10T20:36:17.161Z,101862.92
2018-09-10T20:38:45.750Z,101860.58
2018-09-10T20:41:14.333Z,101860.34
2018-09-10T20:43:42.944Z,101862.38
2018-09-10T20:46:11.542Z,101863.75
2018-09-10T20:48:40.155Z,101863.75
2018-09-10T20:51:08.722Z,101866.63
2018-09-10T20:53:37.325Z,101856.45
2018-09-10T20:56:05.982Z,101858.06
2018-09-10T20:58:34.564Z,101851.48
2018-09-10T21:01:04.948Z,101850.34
2018-09-10T21:03:33.534Z,101837.41
2018-09-10T21:06:02.115Z,101836.13
2018-09-10T21:08:30.726Z,101834.63
2018-09-10T21:10:59.349Z,101830.91
2018-09-10T21:13:27.949Z,101831.74
2018-09-10T21:15:56.525Z,101823.12
2018-09-10T21:18:25.122Z,101833.83
2018-09-10T21:20:53.704Z,101834.77
2018-09-10T21:23:22.302Z,101838.27
2018-09-10T21:25:50.885Z,101838.50
2018-09-10T21:28:19.472Z,101834.86
2018-09-10T21:30:48.026Z,101835.94
2018-09-10T21:33:16.626Z,101844.20
2018-09-10T21:35:45.188Z,101862.55
2018-09-10T21:38:13.805Z,101858.77
2018-09-10T21:40:42.370Z,101854.22
2018-09-10T21:43:11.044Z,101851.47
2018-09-10T21:45:39.604Z,101838.72
2018-09-10T21:48:08.188Z,101834.92
2018-09-10T21:50:36.748Z,101831.63
2018-09-10T21:53:05.354Z,101842.66
2018-09-10T21:55:33.921Z,101846.48
2018-09-10T21:58:02.525Z,101851.13
2018-09-10T22:00:31.087Z,101852.50
2018-09-10T22:02:59.673Z,101851.47
2018-09-10T22:05:28.244Z,101855.60
2018-09-10T22:07:56.821Z,101855.91
2018-09-10T22:10:25.426Z,101849.86
2018-09-10T22:12:54.032Z,101860.34
2018-09-10T22:15:22.601Z,101860.69
2018-09-10T22:17:51.216Z,101864.48
2018-09-10T22:20:19.778Z,101871.48
2018-09-10T22:22:48.342Z,101873.81
2018-09-10T22:25:16.966Z,101872.63
2018-09-10T22:27:45.553Z,101878.48
2018-09-10T22:30:14.138Z,101868.61
2018-09-10T22:32:42.700Z,101860.64
2018-09-10T22:35:11.314Z,101850.91
2018-09-10T22:37:39.885Z,101855.05
2018-09-10T22:40:08.485Z,101851.11
2018-09-10T22:42:37.040Z,101846.44
2018-09-10T22:45:06.124Z,101853.87
2018-09-10T22:47:34.691Z,101852.92
2018-09-10T22:50:03.326Z,101860.58
2018-09-10T22:52:31.913Z,101862.80
2018-09-10T22:55:00.502Z,101871.91
2018-09-10T22:57:29.079Z,101856.98
2018-09-10T22:59:57.676Z,101855.91
2018-09-10T23:02:26.259Z,101858.89
2018-09-10T23:04:54.852Z,101857.17
2018-09-10T23:07:23.431Z,101861.11
2018-09-10T23:09:52.164Z,101865.25
2018-09-10T23:12:20.883Z,101870.95
2018-09-10T23:14:49.466Z,101867.48
2018-09-10T23:17:18.056Z,101862.92
2018-09-10T23:19:46.674Z,101871.09
2018-09-10T23:22:15.304Z,101851.91
2018-09-10T23:24:43.898Z,101851.91
2018-09-10T23:27:12.487Z,101852.45
2018-09-10T23:29:41.070Z,101846.09
2018-09-10T23:32:09.645Z,101853.29
2018-09-10T23:34:38.218Z,101841.73
2018-09-10T23:37:06.807Z,101849.50
2018-09-10T23:39:35.390Z,101850.34
2018-09-10T23:42:03.972Z,101843.98
2018-09-10T23:44:32.608Z,101840.05
2018-09-10T23:47:01.175Z,101835.61
2018-09-10T23:49:29.744Z,101843.56
2018-09-10T23:51:58.298Z,101845.79
2018-09-10T23:54:26.892Z,101840.47
2018-09-10T23:56:55.454Z,101851.19
2018-09-10T23:59:24.045Z,101846.10
